Weather at Zarqa Airport

Public forecast

Using degrees Celsius for public forecast. Weather courtesy of forecast.io.

Closest aviation weather report (METAR) to Zarqa Airport

Closest report is Amman Civil (Marka International) Airport, 8.4 nm (15.6 km) WSW. Retrieved 2022/01/19 23:00 UTC (9 minutes ago):

OJAM 192300Z 29008KT 9999 SCT020 SCT025 01/M02 Q1021 NOSIG

Closest aviation forecast (TAF) to Zarqa Airport

Closest forecast is Amman Civil (Marka International) Airport, 8.4 nm (15.6 km) WSW. Retrieved 2022/01/19 18:15 UTC (5 hours ago):

TAF OJAM 191650Z 1918/2024 27025KT 3000 BR SCT025 SCT030 TEMPO 1919/2002 29015G30KT 1500 FZRA FEW020TCU BKN020 BKN025 PROB30 2002/2006 2000 -FZRA BR BECMG 2007/2009 30020KT 4000 SCT030 SCT035